createdAt,value
2019-01-15T00:00:06.214Z,3.34
2019-01-15T00:01:06.186Z,3.40
2019-01-15T00:02:06.158Z,3.34
2019-01-15T00:03:06.136Z,3.37
2019-01-15T00:04:06.107Z,3.26
2019-01-15T00:05:06.081Z,3.22
2019-01-15T00:06:06.048Z,3.22
2019-01-15T00:07:06.027Z,3.21
2019-01-15T00:08:05.994Z,3.22
2019-01-15T00:09:05.966Z,3.27
2019-01-15T00:10:05.940Z,3.22
2019-01-15T00:11:05.913Z,3.21
2019-01-15T00:12:07.881Z,3.29
2019-01-15T00:13:05.864Z,3.21
2019-01-15T00:14:05.831Z,3.29
2019-01-15T00:15:05.800Z,3.19
2019-01-15T00:16:05.774Z,3.26
2019-01-15T00:17:05.745Z,3.26
2019-01-15T00:18:05.716Z,3.27
2019-01-15T00:19:05.690Z,3.27
2019-01-15T00:20:05.667Z,3.21
2019-01-15T00:21:05.635Z,3.27
2019-01-15T00:22:05.608Z,3.24
2019-01-15T00:23:05.586Z,3.22
2019-01-15T00:24:05.625Z,3.15
2019-01-15T00:25:05.564Z,3.11
2019-01-15T00:26:05.497Z,3.12
2019-01-15T00:27:05.469Z,3.13
2019-01-15T00:28:05.443Z,3.12
2019-01-15T00:29:05.414Z,3.06
2019-01-15T00:30:05.386Z,3.13
2019-01-15T00:31:05.360Z,3.11
2019-01-15T00:32:05.336Z,3.11
2019-01-15T00:33:05.303Z,3.09
2019-01-15T00:34:05.276Z,3.06
2019-01-15T00:35:05.250Z,3.11
2019-01-15T00:36:05.221Z,3.13
2019-01-15T00:37:05.246Z,3.13
2019-01-15T00:38:05.166Z,3.13
2019-01-15T00:39:05.138Z,3.16
2019-01-15T00:40:05.115Z,3.21
2019-01-15T00:41:05.083Z,3.19
2019-01-15T00:42:05.059Z,3.18
2019-01-15T00:43:05.027Z,3.24
2019-01-15T00:44:05.001Z,3.22
2019-01-15T00:45:04.973Z,3.27
2019-01-15T00:46:04.945Z,3.29
2019-01-15T00:47:04.916Z,3.26
2019-01-15T00:48:04.890Z,3.22
2019-01-15T00:49:04.862Z,3.24
2019-01-15T00:50:04.834Z,3.24
2019-01-15T00:51:04.924Z,3.19
2019-01-15T00:52:04.778Z,3.27
2019-01-15T00:53:04.751Z,3.22
2019-01-15T00:54:04.722Z,3.26
2019-01-15T00:55:04.697Z,3.22
2019-01-15T00:56:04.667Z,3.34
2019-01-15T00:57:04.640Z,3.36
2019-01-15T00:58:04.613Z,3.24
2019-01-15T00:59:04.584Z,3.22
2019-01-15T01:00:04.559Z,3.36
2019-01-15T01:01:04.529Z,3.34
2019-01-15T01:02:04.502Z,3.43
2019-01-15T01:03:04.474Z,3.41
2019-01-15T01:04:04.446Z,3.41
2019-01-15T01:05:04.419Z,3.46
2019-01-15T01:06:04.391Z,3.37
2019-01-15T01:07:04.369Z,3.46
2019-01-15T01:08:04.335Z,3.40
2019-01-15T01:09:04.309Z,3.45
2019-01-15T01:10:04.282Z,3.43
2019-01-15T01:11:04.252Z,3.37
2019-01-15T01:12:04.225Z,3.48
2019-01-15T01:13:04.198Z,3.40
2019-01-15T01:14:04.170Z,3.43
2019-01-15T01:15:04.143Z,3.50
2019-01-15T01:16:04.115Z,3.50
2019-01-15T01:17:04.085Z,3.48
2019-01-15T01:18:04.059Z,3.46
2019-01-15T01:19:04.034Z,3.49
2019-01-15T01:20:04.004Z,3.56
2019-01-15T01:21:03.976Z,3.52
2019-01-15T01:22:03.948Z,3.55
2019-01-15T01:23:03.924Z,3.56
2019-01-15T01:24:03.917Z,3.49
2019-01-15T01:25:03.869Z,3.45
2019-01-15T01:26:03.837Z,3.52
2019-01-15T01:27:03.813Z,3.53
2019-01-15T01:28:03.784Z,3.52
2019-01-15T01:29:03.754Z,3.61
2019-01-15T01:30:03.727Z,3.61
2019-01-15T01:31:03.700Z,3.50
2019-01-15T01:32:03.677Z,3.52
2019-01-15T01:33:03.647Z,3.48
2019-01-15T01:34:03.617Z,3.50
2019-01-15T01:35:03.589Z,3.59
2019-01-15T01:36:03.569Z,3.55
2019-01-15T01:37:03.535Z,3.61
2019-01-15T01:38:03.514Z,3.59
2019-01-15T01:39:03.481Z,3.58
2019-01-15T01:40:03.452Z,3.55
2019-01-15T01:41:03.425Z,3.59
2019-01-15T01:42:03.397Z,3.61
2019-01-15T01:43:03.370Z,3.56
2019-01-15T01:44:03.342Z,3.64
2019-01-15T01:45:03.315Z,3.63
2019-01-15T01:46:03.288Z,3.64
2019-01-15T01:47:03.264Z,3.64
2019-01-15T01:48:03.234Z,3.58
2019-01-15T01:49:03.204Z,3.59
2019-01-15T01:50:03.177Z,3.59
2019-01-15T01:51:03.150Z,3.63
2019-01-15T01:52:03.123Z,3.58
2019-01-15T01:53:03.093Z,3.59
2019-01-15T01:54:03.067Z,3.59
2019-01-15T01:55:03.041Z,3.59
2019-01-15T01:56:03.013Z,3.58
2019-01-15T01:57:02.986Z,3.61
2019-01-15T01:58:02.956Z,3.63
2019-01-15T01:59:02.929Z,3.48
2019-01-15T02:00:02.903Z,3.64
2019-01-15T02:01:02.876Z,3.50
2019-01-15T02:02:02.851Z,3.50
2019-01-15T02:03:02.825Z,3.48
2019-01-15T02:04:02.793Z,3.50
2019-01-15T02:05:02.766Z,3.55
2019-01-15T02:06:02.742Z,3.52
2019-01-15T02:07:02.711Z,3.46
2019-01-15T02:08:02.683Z,3.46
2019-01-15T02:09:02.661Z,3.49
2019-01-15T02:10:02.627Z,3.48
2019-01-15T02:11:02.600Z,3.40
2019-01-15T02:12:02.573Z,3.50
2019-01-15T02:13:02.545Z,3.53
2019-01-15T02:14:02.517Z,3.46
2019-01-15T02:15:02.489Z,3.49
2019-01-15T02:16:02.465Z,3.46
2019-01-15T02:17:02.433Z,3.49
2019-01-15T02:18:02.409Z,3.43
2019-01-15T02:19:02.380Z,3.46
2019-01-15T02:20:02.351Z,3.46
2019-01-15T02:21:02.324Z,3.45
2019-01-15T02:22:02.340Z,3.34
2019-01-15T02:23:02.271Z,3.37
2019-01-15T02:24:02.241Z,3.43
2019-01-15T02:25:02.212Z,3.33
2019-01-15T02:26:02.185Z,3.33
2019-01-15T02:27:02.157Z,3.52
2019-01-15T02:28:02.132Z,3.37
2019-01-15T02:29:02.101Z,3.41
2019-01-15T02:30:02.076Z,3.41
2019-01-15T02:31:02.047Z,3.50
2019-01-15T02:32:02.019Z,3.37
2019-01-15T02:33:01.990Z,3.41
2019-01-15T02:34:01.964Z,3.45
2019-01-15T02:35:01.935Z,3.43
2019-01-15T02:36:01.908Z,3.41
2019-01-15T02:37:01.880Z,3.37
2019-01-15T02:38:01.853Z,3.37
2019-01-15T02:39:01.825Z,3.36
2019-01-15T02:40:01.801Z,3.41
2019-01-15T02:41:01.770Z,3.37
2019-01-15T02:42:01.742Z,3.40
2019-01-15T02:43:01.713Z,3.31
2019-01-15T02:44:01.686Z,3.37
2019-01-15T02:45:01.659Z,3.43
2019-01-15T02:46:01.631Z,3.40
2019-01-15T02:47:01.601Z,3.34
2019-01-15T02:48:01.576Z,3.31
2019-01-15T02:49:01.548Z,3.21
2019-01-15T02:50:01.524Z,3.46
2019-01-15T02:51:01.509Z,3.34
2019-01-15T02:52:01.464Z,3.41
2019-01-15T02:53:01.439Z,3.37
2019-01-15T02:54:01.407Z,3.37
2019-01-15T02:55:01.381Z,3.36
2019-01-15T02:56:01.352Z,3.36
2019-01-15T02:57:01.328Z,3.37
2019-01-15T02:58:01.298Z,3.41
2019-01-15T02:59:01.268Z,3.40
2019-01-15T03:00:01.241Z,3.45
2019-01-15T03:01:01.210Z,3.43
2019-01-15T03:02:01.185Z,3.49
2019-01-15T03:03:01.156Z,3.37
2019-01-15T03:04:01.129Z,3.37
2019-01-15T03:05:01.099Z,3.40
2019-01-15T03:06:01.072Z,3.37
2019-01-15T03:07:01.053Z,3.40
2019-01-15T03:08:01.018Z,3.43
2019-01-15T03:09:00.989Z,3.36
2019-01-15T03:10:00.962Z,3.52
2019-01-15T03:11:00.935Z,3.41
2019-01-15T03:12:00.908Z,3.37
2019-01-15T03:13:00.885Z,3.43
2019-01-15T03:14:00.848Z,3.48
2019-01-15T03:15:00.823Z,3.45
2019-01-15T03:16:00.794Z,3.43
2019-01-15T03:17:00.765Z,3.50
2019-01-15T03:18:00.745Z,3.40
2019-01-15T03:19:00.711Z,3.49
2019-01-15T03:20:00.685Z,3.52
2019-01-15T03:21:00.659Z,3.34
2019-01-15T03:22:00.628Z,3.40
2019-01-15T03:23:00.602Z,3.41
2019-01-15T03:24:00.573Z,3.58
2019-01-15T03:25:00.543Z,3.46
2019-01-15T03:26:00.521Z,3.55
2019-01-15T03:27:00.488Z,3.46
2019-01-15T03:28:00.459Z,3.50
2019-01-15T03:29:00.434Z,3.52
2019-01-15T03:30:00.411Z,3.56
2019-01-15T03:31:00.457Z,3.49
2019-01-15T03:32:00.355Z,3.52
2019-01-15T03:33:00.333Z,3.50
2019-01-15T03:34:00.293Z,3.64
2019-01-15T03:35:00.352Z,3.64
2019-01-15T03:36:00.238Z,3.50
2019-01-15T03:37:00.210Z,3.59
2019-01-15T03:38:00.181Z,3.58
2019-01-15T03:39:00.154Z,3.58
2019-01-15T03:40:00.308Z,3.53
2019-01-15T03:41:00.101Z,3.46
2019-01-15T03:42:00.080Z,3.48
2019-01-15T03:43:03.883Z,3.52
2019-01-15T03:44:00.025Z,3.53
2019-01-15T03:44:59.989Z,3.52
2019-01-15T03:46:04.269Z,3.50
2019-01-15T03:46:59.933Z,3.50
2019-01-15T03:47:59.906Z,3.53
2019-01-15T03:48:59.877Z,3.50
2019-01-15T03:49:59.850Z,3.50
2019-01-15T03:50:59.820Z,3.50
2019-01-15T03:51:59.792Z,3.52
2019-01-15T03:52:59.765Z,3.50
2019-01-15T03:53:59.739Z,3.48
2019-01-15T03:54:59.711Z,3.52
2019-01-15T03:55:59.682Z,3.61
2019-01-15T03:56:59.654Z,3.49
2019-01-15T03:57:59.628Z,3.55
2019-01-15T03:58:59.600Z,3.53
2019-01-15T03:59:59.573Z,3.55
2019-01-15T04:00:59.541Z,3.66
2019-01-15T04:01:59.516Z,3.63
2019-01-15T04:02:59.486Z,3.53
2019-01-15T04:03:59.474Z,3.53
2019-01-15T04:04:59.431Z,3.59
2019-01-15T04:05:59.403Z,3.59
2019-01-15T04:06:59.377Z,3.53
2019-01-15T04:07:59.351Z,3.59
2019-01-15T04:08:59.326Z,3.52
2019-01-15T04:09:59.291Z,3.59
2019-01-15T04:10:59.265Z,3.52
2019-01-15T04:11:59.237Z,3.71
2019-01-15T04:12:59.212Z,3.58
2019-01-15T04:13:59.180Z,3.58
2019-01-15T04:14:59.153Z,3.61
2019-01-15T04:15:59.128Z,3.63
2019-01-15T04:16:59.098Z,3.61
2019-01-15T04:17:59.069Z,3.52
2019-01-15T04:18:59.044Z,3.56
2019-01-15T04:19:59.017Z,3.58
2019-01-15T04:20:58.988Z,3.50
2019-01-15T04:21:58.958Z,3.56
2019-01-15T04:22:58.935Z,3.50
2019-01-15T04:23:58.902Z,3.50
2019-01-15T04:24:58.876Z,3.61
2019-01-15T04:25:58.852Z,3.59
2019-01-15T04:26:58.820Z,3.58
2019-01-15T04:27:58.792Z,3.53
2019-01-15T04:28:58.768Z,3.66
2019-01-15T04:29:58.735Z,3.63
2019-01-15T04:30:58.708Z,3.58
2019-01-15T04:31:58.680Z,3.58
2019-01-15T04:32:58.653Z,3.61
2019-01-15T04:33:58.626Z,3.56
2019-01-15T04:34:58.597Z,3.68
2019-01-15T04:35:58.569Z,3.66
2019-01-15T04:36:58.546Z,3.73
2019-01-15T04:37:58.514Z,3.71
2019-01-15T04:38:58.485Z,3.71
2019-01-15T04:39:58.458Z,3.68
2019-01-15T04:40:58.430Z,3.61
2019-01-15T04:41:58.402Z,3.66
2019-01-15T04:42:58.375Z,3.66
2019-01-15T04:43:58.349Z,3.63
2019-01-15T04:44:58.329Z,3.67
2019-01-15T04:45:58.293Z,3.71
2019-01-15T04:46:58.270Z,3.67
2019-01-15T04:47:58.240Z,3.61
2019-01-15T04:48:58.207Z,3.73
2019-01-15T04:49:58.181Z,3.67
2019-01-15T04:50:58.152Z,3.73
2019-01-15T04:51:58.187Z,3.70
2019-01-15T04:52:58.097Z,3.66
2019-01-15T04:53:58.075Z,3.74
2019-01-15T04:54:58.044Z,3.70
2019-01-15T04:55:58.013Z,3.70
2019-01-15T04:56:57.987Z,3.76
2019-01-15T04:57:57.958Z,3.74
2019-01-15T04:58:57.933Z,3.76
2019-01-15T04:59:57.903Z,3.74
2019-01-15T05:00:57.881Z,3.76
2019-01-15T05:01:57.850Z,3.77
2019-01-15T05:02:57.820Z,3.74
2019-01-15T05:03:57.795Z,3.76
2019-01-15T05:04:57.770Z,3.82
2019-01-15T05:05:57.737Z,3.85
2019-01-15T05:06:57.709Z,3.81
2019-01-15T05:07:57.682Z,3.78
2019-01-15T05:08:57.652Z,3.89
2019-01-15T05:09:57.625Z,3.86
2019-01-15T05:10:57.599Z,3.86
2019-01-15T05:11:57.574Z,3.86
2019-01-15T05:12:57.543Z,3.91
2019-01-15T05:13:57.518Z,3.88
2019-01-15T05:14:57.487Z,3.89
2019-01-15T05:15:57.459Z,3.92
2019-01-15T05:16:57.434Z,4.00
2019-01-15T05:17:57.409Z,3.99
2019-01-15T05:18:57.377Z,3.88
2019-01-15T05:19:57.349Z,3.96
2019-01-15T05:20:57.321Z,4.06
2019-01-15T05:21:57.293Z,4.07
2019-01-15T05:22:57.266Z,4.07
2019-01-15T05:23:57.240Z,4.06
2019-01-15T05:24:57.210Z,4.06
2019-01-15T05:25:57.183Z,4.06
2019-01-15T05:26:57.156Z,4.07
2019-01-15T05:27:57.131Z,4.04
2019-01-15T05:28:57.102Z,4.04
2019-01-15T05:29:57.096Z,3.96
2019-01-15T05:30:57.047Z,4.00
2019-01-15T05:31:57.019Z,4.04
2019-01-15T05:32:56.991Z,4.04
2019-01-15T05:33:56.964Z,4.02
2019-01-15T05:34:56.934Z,4.06
2019-01-15T05:35:56.908Z,4.06
2019-01-15T05:36:56.884Z,4.10
2019-01-15T05:37:56.852Z,4.13
2019-01-15T05:38:56.825Z,3.96
2019-01-15T05:39:56.797Z,4.03
2019-01-15T05:40:56.775Z,4.03
2019-01-15T05:41:56.742Z,4.07
2019-01-15T05:42:56.717Z,4.12
2019-01-15T05:43:56.687Z,4.06
2019-01-15T05:44:56.660Z,4.14
2019-01-15T05:45:56.630Z,4.06
2019-01-15T05:46:56.604Z,4.07
2019-01-15T05:47:56.578Z,4.09
2019-01-15T05:48:56.547Z,4.12
2019-01-15T05:49:56.521Z,4.18
2019-01-15T05:50:56.493Z,4.13
2019-01-15T05:51:56.466Z,4.20
2019-01-15T05:52:56.439Z,4.16
2019-01-15T05:53:56.432Z,4.21
2019-01-15T05:54:56.383Z,4.13
2019-01-15T05:55:56.355Z,4.09
2019-01-15T05:56:56.328Z,4.24
2019-01-15T05:57:56.301Z,4.13
2019-01-15T05:58:56.273Z,4.10
2019-01-15T05:59:56.244Z,4.21
2019-01-15T06:00:56.224Z,4.30
2019-01-15T06:01:56.190Z,4.24
2019-01-15T06:02:56.162Z,4.24
2019-01-15T06:03:56.134Z,4.27
2019-01-15T06:04:56.122Z,4.25
2019-01-15T06:05:56.079Z,4.31
2019-01-15T06:06:56.062Z,4.30
2019-01-15T06:07:56.027Z,4.32
2019-01-15T06:08:55.996Z,4.31
2019-01-15T06:09:55.970Z,4.32
2019-01-15T06:10:55.949Z,4.36
2019-01-15T06:11:55.914Z,4.30
2019-01-15T06:12:55.887Z,4.34
2019-01-15T06:13:55.860Z,4.34
2019-01-15T06:14:55.834Z,4.32
2019-01-15T06:15:55.806Z,4.40
2019-01-15T06:16:55.776Z,4.43
2019-01-15T06:17:55.748Z,4.36
2019-01-15T06:18:55.722Z,4.42
2019-01-15T06:19:55.695Z,4.43
2019-01-15T06:20:55.666Z,4.40
2019-01-15T06:21:57.168Z,4.36
2019-01-15T06:22:55.612Z,4.38
2019-01-15T06:23:55.588Z,4.34
2019-01-15T06:24:55.563Z,4.36
2019-01-15T06:25:55.529Z,4.40
2019-01-15T06:26:55.502Z,4.39
2019-01-15T06:27:55.475Z,4.42
2019-01-15T06:28:55.446Z,4.42
2019-01-15T06:29:55.420Z,4.50
2019-01-15T06:30:55.390Z,4.39
2019-01-15T06:31:56.691Z,4.56
2019-01-15T06:32:55.337Z,4.48
2019-01-15T06:33:55.309Z,4.40
2019-01-15T06:34:55.286Z,4.49
2019-01-15T06:35:55.255Z,4.43
2019-01-15T06:36:55.229Z,4.50
2019-01-15T06:37:55.201Z,4.49
2019-01-15T06:38:55.172Z,4.49
2019-01-15T06:39:55.144Z,4.45
2019-01-15T06:40:55.123Z,4.46
2019-01-15T06:41:55.090Z,4.49
2019-01-15T06:42:55.062Z,4.40
2019-01-15T06:43:55.036Z,4.49
2019-01-15T06:44:55.008Z,4.53
2019-01-15T06:45:54.981Z,4.63
2019-01-15T06:46:54.965Z,4.58
2019-01-15T06:47:54.929Z,4.56
2019-01-15T06:48:54.896Z,4.63
2019-01-15T06:49:54.870Z,4.56
2019-01-15T06:50:54.845Z,4.52
2019-01-15T06:51:54.815Z,4.56
2019-01-15T06:52:54.812Z,4.60
2019-01-15T06:53:54.760Z,4.67
2019-01-15T06:54:54.762Z,4.67
2019-01-15T06:55:54.706Z,4.67
2019-01-15T06:56:54.715Z,4.68
2019-01-15T06:57:54.650Z,4.71
2019-01-15T06:58:54.623Z,4.67
2019-01-15T06:59:55.090Z,4.74
2019-01-15T07:00:54.568Z,4.70
2019-01-15T07:01:54.553Z,4.68
2019-01-15T07:02:54.515Z,4.78
2019-01-15T07:03:54.485Z,4.79
2019-01-15T07:04:54.458Z,4.83
2019-01-15T07:05:54.433Z,4.87
2019-01-15T07:06:54.404Z,4.78
2019-01-15T07:07:54.377Z,4.92
2019-01-15T07:08:54.350Z,4.87
2019-01-15T07:09:54.323Z,4.89
2019-01-15T07:10:54.294Z,4.87
2019-01-15T07:11:54.267Z,5.00
2019-01-15T07:12:54.239Z,5.01
2019-01-15T07:13:57.113Z,5.01
2019-01-15T07:14:54.187Z,5.01
2019-01-15T07:15:54.160Z,4.95
2019-01-15T07:16:54.131Z,5.07
2019-01-15T07:17:54.107Z,5.08
2019-01-15T07:18:54.079Z,5.04
2019-01-15T07:19:54.050Z,5.01
2019-01-15T07:20:54.028Z,5.10
2019-01-15T07:21:53.997Z,5.08
2019-01-15T07:22:53.996Z,5.13
2019-01-15T07:23:53.944Z,5.16
2019-01-15T07:24:53.920Z,5.18
2019-01-15T07:25:53.889Z,5.18
2019-01-15T07:26:53.867Z,5.25
2019-01-15T07:27:53.834Z,5.13
2019-01-15T07:28:53.806Z,5.25
2019-01-15T07:29:53.780Z,5.18
2019-01-15T07:30:53.757Z,5.22
2019-01-15T07:31:53.726Z,5.10
2019-01-15T07:32:55.315Z,5.15
2019-01-15T07:33:53.672Z,5.22
2019-01-15T07:34:53.647Z,5.20
2019-01-15T07:35:53.675Z,5.20
2019-01-15T07:36:53.590Z,5.18
2019-01-15T07:37:53.564Z,5.20
2019-01-15T07:38:53.541Z,5.10
2019-01-15T07:39:53.512Z,5.16
2019-01-15T07:40:53.486Z,5.26
2019-01-15T07:41:53.458Z,5.22
2019-01-15T07:42:53.429Z,5.25
2019-01-15T07:43:53.404Z,5.26
2019-01-15T07:44:53.378Z,5.25
2019-01-15T07:45:53.356Z,5.23
2019-01-15T07:46:53.324Z,5.20
2019-01-15T07:47:53.295Z,5.20
2019-01-15T07:48:53.268Z,5.33
2019-01-15T07:49:53.242Z,5.29
2019-01-15T07:50:53.214Z,5.18
2019-01-15T07:51:53.187Z,5.29
2019-01-15T07:52:53.163Z,5.23
2019-01-15T07:53:53.133Z,5.33
2019-01-15T07:54:53.107Z,5.36
2019-01-15T07:55:53.087Z,5.34
2019-01-15T07:56:53.053Z,5.36
2019-01-15T07:57:53.061Z,5.34
2019-01-15T07:58:53.000Z,5.34
2019-01-15T07:59:52.972Z,5.36
2019-01-15T08:00:52.948Z,5.34
2019-01-15T08:01:52.921Z,5.41
2019-01-15T08:02:52.893Z,5.37
2019-01-15T08:03:52.865Z,5.46
2019-01-15T08:04:52.839Z,5.37
2019-01-15T08:05:52.812Z,5.33
2019-01-15T08:06:52.834Z,5.36
2019-01-15T08:07:52.762Z,5.44
2019-01-15T08:08:52.729Z,5.43
2019-01-15T08:09:52.704Z,5.40
2019-01-15T08:10:56.893Z,5.33
2019-01-15T08:11:52.651Z,5.41
2019-01-15T08:12:52.625Z,5.51
2019-01-15T08:13:52.599Z,5.41
2019-01-15T08:14:52.572Z,5.51
2019-01-15T08:15:52.546Z,5.40
2019-01-15T08:16:52.517Z,5.47
2019-01-15T08:17:52.598Z,5.52
2019-01-15T08:18:52.473Z,5.52
2019-01-15T08:19:52.437Z,5.52
2019-01-15T08:20:52.409Z,5.56
2019-01-15T08:21:52.399Z,5.58
2019-01-15T08:22:52.358Z,5.54
2019-01-15T08:23:52.331Z,5.56
2019-01-15T08:24:52.305Z,5.56
2019-01-15T08:25:52.276Z,5.61
2019-01-15T08:26:52.249Z,5.69
2019-01-15T08:27:52.226Z,5.67
2019-01-15T08:28:52.197Z,5.67
2019-01-15T08:29:52.170Z,5.64
2019-01-15T08:30:52.144Z,5.62
2019-01-15T08:31:52.116Z,5.72
2019-01-15T08:32:52.092Z,5.69
2019-01-15T08:33:52.063Z,5.70
2019-01-15T08:34:52.095Z,5.72
2019-01-15T08:35:52.012Z,5.74
2019-01-15T08:36:52.062Z,5.67
2019-01-15T08:37:51.959Z,5.67
2019-01-15T08:38:51.935Z,5.77
2019-01-15T08:39:51.905Z,5.77
2019-01-15T08:40:51.877Z,5.83
2019-01-15T08:41:51.851Z,5.76
2019-01-15T08:42:51.825Z,5.74
2019-01-15T08:43:51.805Z,5.81
2019-01-15T08:44:51.771Z,5.80
2019-01-15T08:45:55.324Z,5.90
2019-01-15T08:46:51.719Z,5.87
2019-01-15T08:47:51.748Z,5.91
2019-01-15T08:48:51.666Z,5.88
2019-01-15T08:49:51.640Z,5.87
2019-01-15T08:50:51.615Z,5.90
2019-01-15T08:51:51.586Z,5.88
2019-01-15T08:52:51.559Z,5.94
2019-01-15T08:53:51.543Z,5.97
2019-01-15T08:54:51.508Z,6.01
2019-01-15T08:55:51.483Z,5.97
2019-01-15T08:56:51.457Z,5.98
2019-01-15T08:57:51.429Z,5.99
2019-01-15T08:58:51.402Z,5.95
2019-01-15T08:59:51.375Z,5.98
2019-01-15T09:00:51.349Z,5.99
2019-01-15T09:01:51.324Z,5.97
2019-01-15T09:02:51.301Z,6.07
2019-01-15T09:03:51.271Z,6.02
2019-01-15T09:04:51.243Z,6.07
2019-01-15T09:05:51.219Z,6.09
2019-01-15T09:06:51.192Z,6.10
2019-01-15T09:07:51.222Z,6.16
2019-01-15T09:08:51.150Z,6.16
2019-01-15T09:09:51.113Z,6.12
2019-01-15T09:10:51.091Z,6.13
2019-01-15T09:11:51.062Z,6.13
2019-01-15T09:12:51.035Z,6.19
2019-01-15T09:13:51.008Z,6.16
2019-01-15T09:14:50.982Z,6.16
2019-01-15T09:15:50.957Z,6.17
2019-01-15T09:16:50.929Z,6.25
2019-01-15T09:17:50.904Z,6.22
2019-01-15T09:18:50.881Z,6.32
2019-01-15T09:19:50.852Z,6.34
2019-01-15T09:20:50.825Z,6.34
2019-01-15T09:21:50.798Z,6.38
2019-01-15T09:22:50.774Z,6.39
2019-01-15T09:23:50.747Z,6.39
2019-01-15T09:24:50.721Z,6.39
2019-01-15T09:25:50.693Z,6.47
2019-01-15T09:26:50.681Z,6.44
2019-01-15T09:27:50.642Z,6.50
2019-01-15T09:28:50.615Z,6.52
2019-01-15T09:29:50.592Z,6.44
2019-01-15T09:30:50.565Z,6.53
2019-01-15T09:31:50.539Z,6.49
2019-01-15T09:32:50.512Z,6.49
2019-01-15T09:33:50.486Z,6.49
2019-01-15T09:34:50.462Z,6.57
2019-01-15T09:35:50.438Z,6.54
2019-01-15T09:36:50.406Z,6.56
2019-01-15T09:37:50.385Z,6.65
2019-01-15T09:38:50.356Z,6.56
2019-01-15T09:39:50.336Z,6.56
2019-01-15T09:40:50.305Z,6.59
2019-01-15T09:41:50.278Z,6.57
2019-01-15T09:42:50.262Z,6.60
2019-01-15T09:43:50.226Z,6.59
2019-01-15T09:44:50.199Z,6.54
2019-01-15T09:45:50.174Z,6.52
2019-01-15T09:46:50.153Z,6.52
2019-01-15T09:47:50.122Z,6.64
2019-01-15T09:48:50.097Z,6.62
2019-01-15T09:49:50.095Z,6.62
2019-01-15T09:50:50.047Z,6.54
2019-01-15T09:51:50.020Z,6.64
2019-01-15T09:52:49.993Z,6.67
2019-01-15T09:53:49.971Z,6.60
2019-01-15T09:54:49.940Z,6.67
2019-01-15T09:55:49.923Z,6.70
2019-01-15T09:56:49.888Z,6.65
2019-01-15T09:57:49.869Z,6.64
2019-01-15T09:58:49.837Z,6.67
2019-01-15T09:59:49.811Z,6.65
2019-01-15T10:00:49.794Z,6.64
2019-01-15T10:01:49.765Z,6.67
2019-01-15T10:02:49.737Z,6.62
2019-01-15T10:03:49.707Z,6.64
2019-01-15T10:04:49.680Z,6.64
2019-01-15T10:05:49.656Z,6.62
2019-01-15T10:06:49.631Z,6.65
2019-01-15T10:07:49.608Z,6.68
2019-01-15T10:08:49.577Z,6.72
2019-01-15T10:09:49.552Z,6.75
2019-01-15T10:10:49.527Z,6.67
2019-01-15T10:11:49.502Z,6.75
2019-01-15T10:12:49.476Z,6.72
2019-01-15T10:13:49.450Z,6.75
2019-01-15T10:14:49.424Z,6.72
2019-01-15T10:15:49.399Z,6.78
2019-01-15T10:16:49.370Z,6.75
2019-01-15T10:17:49.347Z,6.82
2019-01-15T10:18:49.322Z,6.78
2019-01-15T10:19:49.296Z,6.78
2019-01-15T10:20:49.273Z,6.78
2019-01-15T10:21:49.243Z,6.85
2019-01-15T10:22:49.217Z,6.85
2019-01-15T10:23:49.193Z,6.85
2019-01-15T10:24:49.165Z,6.85
2019-01-15T10:25:49.140Z,6.83
2019-01-15T10:26:49.116Z,6.87
2019-01-15T10:27:49.089Z,6.93
2019-01-15T10:28:49.063Z,6.92
2019-01-15T10:29:49.036Z,7.00
2019-01-15T10:30:49.012Z,6.90
2019-01-15T10:31:48.987Z,7.04
2019-01-15T10:32:48.960Z,6.92
2019-01-15T10:33:48.933Z,7.03
2019-01-15T10:34:48.908Z,7.03
2019-01-15T10:35:48.883Z,6.90
2019-01-15T10:36:48.856Z,7.03
2019-01-15T10:37:48.830Z,7.03
2019-01-15T10:38:48.807Z,6.97
2019-01-15T10:39:48.780Z,6.95
2019-01-15T10:40:48.754Z,7.10
2019-01-15T10:41:48.727Z,7.04
2019-01-15T10:42:48.701Z,7.07
2019-01-15T10:43:48.678Z,7.01
2019-01-15T10:44:48.967Z,7.08
2019-01-15T10:45:48.627Z,7.01
2019-01-15T10:46:48.599Z,7.01
2019-01-15T10:47:48.574Z,7.04
2019-01-15T10:48:48.547Z,7.05
2019-01-15T10:49:48.523Z,7.10
2019-01-15T10:50:48.497Z,7.01
2019-01-15T10:51:48.471Z,7.04
2019-01-15T10:52:48.445Z,7.08
2019-01-15T10:53:48.420Z,7.11
2019-01-15T10:54:48.396Z,7.14
2019-01-15T10:55:48.374Z,7.11
2019-01-15T10:56:48.343Z,7.19
2019-01-15T10:57:48.319Z,7.21
2019-01-15T10:58:48.292Z,7.21
2019-01-15T10:59:48.267Z,7.25
2019-01-15T11:00:48.240Z,7.26
2019-01-15T11:01:48.217Z,7.21
2019-01-15T11:02:48.193Z,7.21
2019-01-15T11:03:48.169Z,7.18
2019-01-15T11:04:48.137Z,7.23
2019-01-15T11:05:48.111Z,7.18
2019-01-15T11:06:48.087Z,7.18
2019-01-15T11:07:48.061Z,7.23
2019-01-15T11:08:48.036Z,7.19
2019-01-15T11:09:48.014Z,7.18
2019-01-15T11:10:47.985Z,7.21
2019-01-15T11:11:47.963Z,7.23
2019-01-15T11:12:47.976Z,7.26
2019-01-15T11:13:47.921Z,7.26
2019-01-15T11:14:47.883Z,7.26
2019-01-15T11:15:47.857Z,7.29
2019-01-15T11:16:47.832Z,7.31
2019-01-15T11:17:47.807Z,7.26
2019-01-15T11:18:47.781Z,7.31
2019-01-15T11:19:47.758Z,7.39
2019-01-15T11:20:47.730Z,7.43
2019-01-15T11:21:47.704Z,7.40
2019-01-15T11:22:47.683Z,7.40
2019-01-15T11:23:47.654Z,7.44
2019-01-15T11:24:47.627Z,7.40
2019-01-15T11:25:47.602Z,7.47
2019-01-15T11:26:47.576Z,7.47
2019-01-15T11:27:47.557Z,7.50
2019-01-15T11:28:47.530Z,7.53
2019-01-15T11:29:47.503Z,7.44
2019-01-15T11:30:47.476Z,7.56
2019-01-15T11:31:47.452Z,7.62
2019-01-15T11:32:47.425Z,7.62
2019-01-15T11:33:47.404Z,7.61
2019-01-15T11:34:47.374Z,7.58
2019-01-15T11:35:47.350Z,7.50
2019-01-15T11:36:47.324Z,7.46
2019-01-15T11:37:47.298Z,7.50
2019-01-15T11:38:47.274Z,7.55
2019-01-15T11:39:47.249Z,7.47
2019-01-15T11:40:47.222Z,7.41
2019-01-15T11:41:47.197Z,7.48
2019-01-15T11:42:47.175Z,7.50
2019-01-15T11:43:47.147Z,7.50
2019-01-15T11:44:47.121Z,7.51
2019-01-15T11:45:47.096Z,7.44
2019-01-15T11:46:47.070Z,7.47
2019-01-15T11:47:47.048Z,7.50
2019-01-15T11:48:47.020Z,7.50
2019-01-15T11:49:46.995Z,7.61
2019-01-15T11:50:46.971Z,7.47
2019-01-15T11:51:46.947Z,7.47
2019-01-15T11:52:46.955Z,7.47
2019-01-15T11:53:46.896Z,7.47
2019-01-15T11:54:46.871Z,7.47
2019-01-15T11:55:46.845Z,7.51
2019-01-15T11:56:46.821Z,7.48
2019-01-15T11:57:46.792Z,7.47
2019-01-15T11:58:46.770Z,7.48
2019-01-15T11:59:46.794Z,7.50
2019-01-15T12:00:46.719Z,7.47
2019-01-15T12:01:46.694Z,7.47
2019-01-15T12:02:46.668Z,7.47
2019-01-15T12:03:46.644Z,7.47
2019-01-15T12:04:46.619Z,7.47
2019-01-15T12:05:46.594Z,7.46
2019-01-15T12:06:46.568Z,7.46
2019-01-15T12:07:46.542Z,7.44
2019-01-15T12:08:46.517Z,7.47
2019-01-15T12:09:46.491Z,7.46
2019-01-15T12:10:46.465Z,7.46
2019-01-15T12:11:46.445Z,7.47
2019-01-15T12:12:46.415Z,7.51
2019-01-15T12:13:46.390Z,7.39
2019-01-15T12:14:46.365Z,7.43
2019-01-15T12:15:46.339Z,7.48
2019-01-15T12:16:46.315Z,7.37
2019-01-15T12:17:46.292Z,7.46
2019-01-15T12:18:46.264Z,7.43
2019-01-15T12:19:46.240Z,7.43
2019-01-15T12:20:46.211Z,7.39
2019-01-15T12:21:46.188Z,7.39
2019-01-15T12:22:46.163Z,7.33
2019-01-15T12:23:46.138Z,7.33
2019-01-15T12:24:46.111Z,7.23
2019-01-15T12:25:46.088Z,7.26
2019-01-15T12:26:46.061Z,7.28
2019-01-15T12:27:46.037Z,7.29
2019-01-15T12:28:46.011Z,7.26
2019-01-15T12:29:45.988Z,7.29
2019-01-15T12:30:45.963Z,7.28
2019-01-15T12:31:45.934Z,7.29
2019-01-15T12:32:45.935Z,7.28
2019-01-15T12:33:45.882Z,7.28
2019-01-15T12:34:45.858Z,7.26
2019-01-15T12:35:45.835Z,7.28
2019-01-15T12:36:45.810Z,7.32
2019-01-15T12:37:45.782Z,7.36
2019-01-15T12:38:45.761Z,7.33
2019-01-15T12:39:45.732Z,7.33
2019-01-15T12:40:45.706Z,7.31
2019-01-15T12:41:45.680Z,7.41
2019-01-15T12:42:45.654Z,7.41
2019-01-15T12:43:45.630Z,7.31
2019-01-15T12:44:45.604Z,7.28
2019-01-15T12:45:45.579Z,7.33
2019-01-15T12:46:45.556Z,7.33
2019-01-15T12:47:45.528Z,7.25
2019-01-15T12:48:45.504Z,7.28
2019-01-15T12:49:45.478Z,7.25
2019-01-15T12:50:45.580Z,7.26
2019-01-15T12:51:45.426Z,7.32
2019-01-15T12:52:45.401Z,7.26
2019-01-15T12:53:45.376Z,7.25
2019-01-15T12:54:45.357Z,7.25
2019-01-15T12:55:45.325Z,7.29
2019-01-15T12:56:45.300Z,7.31
2019-01-15T12:57:45.285Z,7.29
2019-01-15T12:58:45.247Z,7.37
2019-01-15T12:59:45.223Z,7.26
2019-01-15T13:00:45.197Z,7.29
2019-01-15T13:01:45.172Z,7.36
2019-01-15T13:02:45.147Z,7.32
2019-01-15T13:03:45.122Z,7.31
2019-01-15T13:04:45.894Z,7.32
2019-01-15T13:05:45.072Z,7.40
2019-01-15T13:06:45.045Z,7.31
2019-01-15T13:07:45.018Z,7.36
2019-01-15T13:08:45.053Z,7.40
2019-01-15T13:09:44.970Z,7.40
2019-01-15T13:10:44.947Z,7.37
2019-01-15T13:11:44.918Z,7.44
2019-01-15T13:12:44.893Z,7.41
2019-01-15T13:13:44.869Z,7.39
2019-01-15T13:14:44.842Z,7.40
2019-01-15T13:15:44.816Z,7.40
2019-01-15T13:16:44.791Z,7.40
2019-01-15T13:17:44.768Z,7.41